sensor_id;sensor_type;location;lat;lon;timestamp;pressure;altitude;pressure_sealevel;temperature;humidity
62103;BME280;48077;48.104;11.702;2024-02-28T00:00:40;95255.06;;;3.41;100.00
62103;BME280;48077;48.104;11.702;2024-02-28T00:03:08;95265.22;;;3.38;100.00
62103;BME280;48077;48.104;11.702;2024-02-28T00:05:36;95260.75;;;3.38;100.00
62103;BME280;48077;48.104;11.702;2024-02-28T00:08:04;95257.53;;;3.43;100.00
62103;BME280;48077;48.104;11.702;2024-02-28T00:10:32;95266.00;;;3.38;100.00
62103;BME280;48077;48.104;11.702;2024-02-28T00:13:00;95262.16;;;3.41;100.00
62103;BME280;48077;48.104;11.702;2024-02-28T00:15:27;95262.59;;;3.44;100.00
62103;BME280;48077;48.104;11.702;2024-02-28T00:17:57;95259.53;;;3.41;100.00
62103;BME280;48077;48.104;11.702;2024-02-28T00:20:24;95260.34;;;3.41;100.00
62103;BME280;48077;48.104;11.702;2024-02-28T00:22:54;95255.91;;;3.42;100.00
62103;BME280;48077;48.104;11.702;2024-02-28T00:25:22;95264.81;;;3.41;100.00
62103;BME280;48077;48.104;11.702;2024-02-28T00:27:50;95264.59;;;3.36;100.00
62103;BME280;48077;48.104;11.702;2024-02-28T00:30:18;95268.84;;;3.37;100.00
62103;BME280;48077;48.104;11.702;2024-02-28T00:32:45;95280.19;;;3.37;100.00
62103;BME280;48077;48.104;11.702;2024-02-28T00:35:15;95278.38;;;3.38;100.00
62103;BME280;48077;48.104;11.702;2024-02-28T00:37:42;95286.91;;;3.40;100.00
62103;BME280;48077;48.104;11.702;2024-02-28T00:40:10;95282.06;;;3.43;100.00
62103;BME280;48077;48.104;11.702;2024-02-28T00:42:38;95284.53;;;3.52;100.00
62103;BME280;48077;48.104;11.702;2024-02-28T00:45:09;95292.03;;;3.48;100.00
62103;BME280;48077;48.104;11.702;2024-02-28T00:47:37;95294.88;;;3.47;100.00
62103;BME280;48077;48.104;11.702;2024-02-28T00:50:07;95291.34;;;3.39;100.00
62103;BME280;48077;48.104;11.702;2024-02-28T00:52:37;95293.19;;;3.39;100.00
62103;BME280;48077;48.104;11.702;2024-02-28T00:55:05;95303.41;;;3.49;100.00
62103;BME280;48077;48.104;11.702;2024-02-28T00:57:33;95308.50;;;3.50;100.00
62103;BME280;48077;48.104;11.702;2024-02-28T01:00:02;95308.06;;;3.47;100.00
62103;BME280;48077;48.104;11.702;2024-02-28T01:07:44;95327.50;;;3.45;100.00
62103;BME280;48077;48.104;11.702;2024-02-28T01:10:12;95334.78;;;3.43;100.00
62103;BME280;48077;48.104;11.702;2024-02-28T01:12:40;95353.88;;;3.45;100.00
62103;BME280;48077;48.104;11.702;2024-02-28T01:15:08;95349.03;;;3.49;100.00
62103;BME280;48077;48.104;11.702;2024-02-28T01:17:36;95342.94;;;3.49;100.00
62103;BME280;48077;48.104;11.702;2024-02-28T01:20:05;95350.06;;;3.48;100.00
62103;BME280;48077;48.104;11.702;2024-02-28T01:22:33;95358.16;;;3.47;100.00
62103;BME280;48077;48.104;11.702;2024-02-28T01:25:03;95357.53;;;3.44;100.00
62103;BME280;48077;48.104;11.702;2024-02-28T01:27:32;95361.00;;;3.52;100.00
62103;BME280;48077;48.104;11.702;2024-02-28T01:30:00;95367.75;;;3.54;100.00
62103;BME280;48077;48.104;11.702;2024-02-28T01:32:28;95363.72;;;3.58;100.00
62103;BME280;48077;48.104;11.702;2024-02-28T01:34:56;95365.97;;;3.61;100.00
62103;BME280;48077;48.104;11.702;2024-02-28T01:37:24;95359.88;;;3.61;100.00
62103;BME280;48077;48.104;11.702;2024-02-28T01:39:52;95354.59;;;3.61;100.00
62103;BME280;48077;48.104;11.702;2024-02-28T01:42:21;95350.75;;;3.63;100.00
62103;BME280;48077;48.104;11.702;2024-02-28T01:44:49;95345.66;;;3.62;100.00
62103;BME280;48077;48.104;11.702;2024-02-28T01:47:17;95348.75;;;3.65;100.00
62103;BME280;48077;48.104;11.702;2024-02-28T01:49:46;95347.09;;;3.64;100.00
62103;BME280;48077;48.104;11.702;2024-02-28T01:52:14;95344.88;;;3.61;100.00
62103;BME280;48077;48.104;11.702;2024-02-28T01:54:42;95338.56;;;3.62;100.00
62103;BME280;48077;48.104;11.702;2024-02-28T01:57:10;95343.66;;;3.64;100.00
62103;BME280;48077;48.104;11.702;2024-02-28T01:59:40;95341.50;;;3.74;100.00
62103;BME280;48077;48.104;11.702;2024-02-28T02:02:08;95351.75;;;3.62;100.00
62103;BME280;48077;48.104;11.702;2024-02-28T02:04:36;95340.16;;;3.57;100.00
62103;BME280;48077;48.104;11.702;2024-02-28T02:07:03;95352.78;;;3.61;100.00
62103;BME280;48077;48.104;11.702;2024-02-28T02:09:31;95346.28;;;3.64;100.00
62103;BME280;48077;48.104;11.702;2024-02-28T02:12:01;95353.81;;;3.60;100.00
62103;BME280;48077;48.104;11.702;2024-02-28T02:14:28;95353.41;;;3.63;100.00
62103;BME280;48077;48.104;11.702;2024-02-28T02:16:58;95352.19;;;3.66;100.00
62103;BME280;48077;48.104;11.702;2024-02-28T02:19:25;95355.09;;;3.71;100.00
62103;BME280;48077;48.104;11.702;2024-02-28T02:21:57;95363.00;;;3.71;100.00
62103;BME280;48077;48.104;11.702;2024-02-28T02:24:26;95354.06;;;3.72;100.00
62103;BME280;48077;48.104;11.702;2024-02-28T02:26:55;95346.78;;;3.74;100.00
62103;BME280;48077;48.104;11.702;2024-02-28T02:29:23;95340.97;;;3.85;100.00
62103;BME280;48077;48.104;11.702;2024-02-28T02:31:50;95338.03;;;3.74;100.00
62103;BME280;48077;48.104;11.702;2024-02-28T02:34:18;95343.06;;;3.69;100.00
62103;BME280;48077;48.104;11.702;2024-02-28T02:36:46;95343.06;;;3.69;100.00
62103;BME280;48077;48.104;11.702;2024-02-28T02:39:14;95339.81;;;3.67;100.00
62103;BME280;48077;48.104;11.702;2024-02-28T02:41:43;95352.19;;;3.66;100.00
62103;BME280;48077;48.104;11.702;2024-02-28T02:44:11;95349.56;;;3.66;100.00
62103;BME280;48077;48.104;11.702;2024-02-28T02:46:38;95353.22;;;3.65;100.00
62103;BME280;48077;48.104;11.702;2024-02-28T02:49:06;95356.50;;;3.74;100.00
62103;BME280;48077;48.104;11.702;2024-02-28T02:51:34;95356.69;;;3.72;100.00
62103;BME280;48077;48.104;11.702;2024-02-28T02:54:02;95356.84;;;3.64;100.00
62103;BME280;48077;48.104;11.702;2024-02-28T02:56:29;95366.19;;;3.67;100.00
62103;BME280;48077;48.104;11.702;2024-02-28T02:58:58;95357.50;;;3.73;100.00
62103;BME280;48077;48.104;11.702;2024-02-28T03:01:26;95362.41;;;3.76;100.00
62103;BME280;48077;48.104;11.702;2024-02-28T03:03:54;95369.53;;;3.75;100.00
62103;BME280;48077;48.104;11.702;2024-02-28T03:06:22;95367.84;;;3.68;100.00
62103;BME280;48077;48.104;11.702;2024-02-28T03:08:50;95368.47;;;3.70;100.00
62103;BME280;48077;48.104;11.702;2024-02-28T03:11:18;95369.06;;;3.72;100.00
62103;BME280;48077;48.104;11.702;2024-02-28T03:13:46;95375.44;;;3.84;100.00
62103;BME280;48077;48.104;11.702;2024-02-28T03:16:15;95369.41;;;3.90;100.00
62103;BME280;48077;48.104;11.702;2024-02-28T03:18:43;95369.66;;;4.02;100.00
62103;BME280;48077;48.104;11.702;2024-02-28T03:21:11;95363.44;;;4.16;100.00
62103;BME280;48077;48.104;11.702;2024-02-28T03:23:39;95365.88;;;4.11;100.00
62103;BME280;48077;48.104;11.702;2024-02-28T03:26:06;95371.34;;;4.16;100.00
62103;BME280;48077;48.104;11.702;2024-02-28T03:28:34;95372.72;;;4.05;100.00
62103;BME280;48077;48.104;11.702;2024-02-28T03:31:03;95385.13;;;4.05;100.00
62103;BME280;48077;48.104;11.702;2024-02-28T03:33:32;95383.09;;;4.07;100.00
62103;BME280;48077;48.104;11.702;2024-02-28T03:36:02;95388.56;;;4.05;100.00
62103;BME280;48077;48.104;11.702;2024-02-28T03:38:29;95397.44;;;3.98;100.00
62103;BME280;48077;48.104;11.702;2024-02-28T03:40:57;95403.94;;;3.95;100.00
62103;BME280;48077;48.104;11.702;2024-02-28T03:43:25;95409.50;;;4.07;100.00
62103;BME280;48077;48.104;11.702;2024-02-28T03:45:52;95402.00;;;4.11;100.00
62103;BME280;48077;48.104;11.702;2024-02-28T03:48:20;95405.81;;;4.08;100.00
62103;BME280;48077;48.104;11.702;2024-02-28T03:50:49;95405.06;;;4.14;100.00
62103;BME280;48077;48.104;11.702;2024-02-28T03:53:17;95408.91;;;4.12;100.00
62103;BME280;48077;48.104;11.702;2024-02-28T03:55:44;95421.25;;;4.04;100.00
62103;BME280;48077;48.104;11.702;2024-02-28T03:58:12;95428.97;;;4.06;100.00
62103;BME280;48077;48.104;11.702;2024-02-28T04:00:40;95423.03;;;3.97;100.00
62103;BME280;48077;48.104;11.702;2024-02-28T04:03:11;95421.81;;;4.00;100.00
62103;BME280;48077;48.104;11.702;2024-02-28T04:05:40;95424.09;;;4.03;100.00
62103;BME280;48077;48.104;11.702;2024-02-28T04:08:09;95432.19;;;4.01;100.00
62103;BME280;48077;48.104;11.702;2024-02-28T04:10:38;95435.94;;;3.85;100.00
62103;BME280;48077;48.104;11.702;2024-02-28T04:13:06;95438.84;;;3.97;100.00
62103;BME280;48077;48.104;11.702;2024-02-28T04:15:33;95438.97;;;3.82;100.00
62103;BME280;48077;48.104;11.702;2024-02-28T04:18:01;95441.84;;;3.88;100.00
62103;BME280;48077;48.104;11.702;2024-02-28T04:20:30;95441.78;;;3.81;100.00
62103;BME280;48077;48.104;11.702;2024-02-28T04:22:57;95449.00;;;3.94;100.00
62103;BME280;48077;48.104;11.702;2024-02-28T04:25:26;95453.22;;;3.88;100.00
62103;BME280;48077;48.104;11.702;2024-02-28T04:27:54;95456.34;;;3.98;100.00
62103;BME280;48077;48.104;11.702;2024-02-28T04:30:23;95457.28;;;3.91;100.00
62103;BME280;48077;48.104;11.702;2024-02-28T04:32:51;95460.50;;;3.86;100.00
62103;BME280;48077;48.104;11.702;2024-02-28T04:35:19;95461.56;;;3.92;100.00
62103;BME280;48077;48.104;11.702;2024-02-28T04:37:46;95475.75;;;3.91;100.00
62103;BME280;48077;48.104;11.702;2024-02-28T04:40:14;95474.41;;;4.01;100.00
62103;BME280;48077;48.104;11.702;2024-02-28T04:42:44;95471.97;;;4.00;100.00
62103;BME280;48077;48.104;11.702;2024-02-28T04:45:12;95478.53;;;3.82;100.00
62103;BME280;48077;48.104;11.702;2024-02-28T04:47:40;95473.25;;;3.82;100.00
62103;BME280;48077;48.104;11.702;2024-02-28T04:50:10;95477.72;;;3.82;100.00
62103;BME280;48077;48.104;11.702;2024-02-28T04:52:38;95486.13;;;3.71;100.00
62103;BME280;48077;48.104;11.702;2024-02-28T04:55:06;95481.75;;;3.78;100.00
62103;BME280;48077;48.104;11.702;2024-02-28T04:57:34;95490.72;;;3.62;100.00
62103;BME280;48077;48.104;11.702;2024-02-28T05:00:04;95488.50;;;3.59;100.00
62103;BME280;48077;48.104;11.702;2024-02-28T05:02:32;95475.03;;;3.54;100.00
62103;BME280;48077;48.104;11.702;2024-02-28T05:05:00;95485.66;;;3.60;100.00
62103;BME280;48077;48.104;11.702;2024-02-28T05:07:28;95485.50;;;3.69;100.00
62103;BME280;48077;48.104;11.702;2024-02-28T05:09:56;95498.91;;;3.67;100.00
62103;BME280;48077;48.104;11.702;2024-02-28T05:12:23;95487.47;;;3.60;100.00
62103;BME280;48077;48.104;11.702;2024-02-28T05:14:51;95500.91;;;3.65;100.00
62103;BME280;48077;48.104;11.702;2024-02-28T05:17:22;95479.63;;;3.45;100.00
62103;BME280;48077;48.104;11.702;2024-02-28T05:19:50;95501.03;;;3.57;100.00
62103;BME280;48077;48.104;11.702;2024-02-28T05:22:18;95494.97;;;3.56;100.00
62103;BME280;48077;48.104;11.702;2024-02-28T05:24:46;95508.78;;;3.58;100.00
62103;BME280;48077;48.104;11.702;2024-02-28T05:27:14;95505.63;;;3.70;100.00
62103;BME280;48077;48.104;11.702;2024-02-28T05:29:41;95511.53;;;3.72;100.00
62103;BME280;48077;48.104;11.702;2024-02-28T05:32:09;95521.91;;;3.73;100.00
62103;BME280;48077;48.104;11.702;2024-02-28T05:34:39;95523.78;;;3.79;100.00
62103;BME280;48077;48.104;11.702;2024-02-28T05:37:07;95523.91;;;3.71;100.00
62103;BME280;48077;48.104;11.702;2024-02-28T05:39:34;95525.41;;;3.80;100.00
62103;BME280;48077;48.104;11.702;2024-02-28T05:42:02;95533.88;;;3.76;100.00
62103;BME280;48077;48.104;11.702;2024-02-28T05:44:30;95530.97;;;3.71;100.00
62103;BME280;48077;48.104;11.702;2024-02-28T05:46:58;95534.19;;;3.66;100.00
62103;BME280;48077;48.104;11.702;2024-02-28T05:49:26;95537.22;;;3.63;100.00
62103;BME280;48077;48.104;11.702;2024-02-28T05:51:55;95538.66;;;3.65;100.00
62103;BME280;48077;48.104;11.702;2024-02-28T05:54:23;95544.44;;;3.76;100.00
62103;BME280;48077;48.104;11.702;2024-02-28T05:56:54;95548.34;;;3.80;100.00
62103;BME280;48077;48.104;11.702;2024-02-28T05:59:22;95550.84;;;3.88;100.00
62103;BME280;48077;48.104;11.702;2024-02-28T06:01:49;95551.78;;;3.80;100.00
62103;BME280;48077;48.104;11.702;2024-02-28T06:04:17;95556.88;;;3.82;100.00
62103;BME280;48077;48.104;11.702;2024-02-28T06:06:45;95564.53;;;3.55;100.00
62103;BME280;48077;48.104;11.702;2024-02-28T06:09:14;95572.38;;;3.70;100.00
62103;BME280;48077;48.104;11.702;2024-02-28T06:11:42;95570.81;;;3.76;100.00
62103;BME280;48077;48.104;11.702;2024-02-28T06:14:10;95575.66;;;3.72;100.00
62103;BME280;48077;48.104;11.702;2024-02-28T06:16:37;95577.03;;;3.68;100.00
62103;BME280;48077;48.104;11.702;2024-02-28T06:19:05;95579.22;;;3.64;100.00
62103;BME280;48077;48.104;11.702;2024-02-28T06:21:33;95579.31;;;3.71;100.00
62103;BME280;48077;48.104;11.702;2024-02-28T06:24:01;95589.34;;;3.61;100.00
62103;BME280;48077;48.104;11.702;2024-02-28T06:26:31;95594.69;;;3.68;100.00
62103;BME280;48077;48.104;11.702;2024-02-28T06:28:58;95592.75;;;3.76;100.00
62103;BME280;48077;48.104;11.702;2024-02-28T06:31:28;95596.94;;;3.71;100.00
62103;BME280;48077;48.104;11.702;2024-02-28T06:33:58;95595.09;;;3.50;100.00
62103;BME280;48077;48.104;11.702;2024-02-28T06:36:26;95603.72;;;3.58;100.00
62103;BME280;48077;48.104;11.702;2024-02-28T06:38:53;95606.69;;;3.70;100.00
62103;BME280;48077;48.104;11.702;2024-02-28T06:41:21;95616.41;;;3.70;100.00
62103;BME280;48077;48.104;11.702;2024-02-28T06:43:50;95614.03;;;3.75;100.00
62103;BME280;48077;48.104;11.702;2024-02-28T06:46:18;95620.44;;;3.65;100.00
62103;BME280;48077;48.104;11.702;2024-02-28T06:48:45;95623.41;;;3.77;100.00
62103;BME280;48077;48.104;11.702;2024-02-28T06:51:15;95628.69;;;3.62;100.00
62103;BME280;48077;48.104;11.702;2024-02-28T06:53:43;95634.59;;;3.64;100.00
62103;BME280;48077;48.104;11.702;2024-02-28T06:56:12;95638.66;;;3.82;100.00
62103;BME280;48077;48.104;11.702;2024-02-28T06:58:39;95635.13;;;3.75;100.00
62103;BME280;48077;48.104;11.702;2024-02-28T07:01:08;95632.31;;;3.76;100.00
62103;BME280;48077;48.104;11.702;2024-02-28T07:03:36;95632.69;;;3.73;100.00
62103;BME280;48077;48.104;11.702;2024-02-28T07:06:04;95635.06;;;3.68;100.00
62103;BME280;48077;48.104;11.702;2024-02-28T07:08:32;95640.06;;;3.78;100.00
62103;BME280;48077;48.104;11.702;2024-02-28T07:11:00;95644.41;;;3.85;100.00
62103;BME280;48077;48.104;11.702;2024-02-28T07:13:29;95645.06;;;3.73;100.00
62103;BME280;48077;48.104;11.702;2024-02-28T07:15:56;95651.78;;;3.75;100.00
62103;BME280;48077;48.104;11.702;2024-02-28T07:18:26;95649.91;;;3.69;100.00
62103;BME280;48077;48.104;11.702;2024-02-28T07:20:55;95650.09;;;3.68;100.00
62103;BME280;48077;48.104;11.702;2024-02-28T07:23:23;95647.41;;;3.82;100.00
62103;BME280;48077;48.104;11.702;2024-02-28T07:25:50;95656.44;;;3.73;100.00
62103;BME280;48077;48.104;11.702;2024-02-28T07:28:18;95652.94;;;3.88;100.00
62103;BME280;48077;48.104;11.702;2024-02-28T07:30:46;95646.72;;;3.95;100.00
62103;BME280;48077;48.104;11.702;2024-02-28T07:33:14;95651.69;;;3.69;100.00
62103;BME280;48077;48.104;11.702;2024-02-28T07:35:47;95648.09;;;3.91;100.00
62103;BME280;48077;48.104;11.702;2024-02-28T07:38:15;95648.44;;;4.03;100.00
62103;BME280;48077;48.104;11.702;2024-02-28T07:40:44;95642.88;;;3.98;100.00
62103;BME280;48077;48.104;11.702;2024-02-28T07:43:11;95645.72;;;4.18;100.00
62103;BME280;48077;48.104;11.702;2024-02-28T07:45:39;95641.69;;;4.22;100.00
62103;BME280;48077;48.104;11.702;2024-02-28T07:48:07;95647.78;;;4.22;100.00
62103;BME280;48077;48.104;11.702;2024-02-28T07:50:34;95650.69;;;4.28;100.00
62103;BME280;48077;48.104;11.702;2024-02-28T07:53:03;95652.38;;;4.35;100.00
62103;BME280;48077;48.104;11.702;2024-02-28T07:55:31;95657.28;;;4.38;100.00
62103;BME280;48077;48.104;11.702;2024-02-28T07:57:59;95660.06;;;4.30;100.00
62103;BME280;48077;48.104;11.702;2024-02-28T08:00:27;95661.69;;;4.10;100.00
62103;BME280;48077;48.104;11.702;2024-02-28T08:02:57;95668.97;;;4.08;100.00
62103;BME280;48077;48.104;11.702;2024-02-28T08:05:24;95673.94;;;4.17;100.00
62103;BME280;48077;48.104;11.702;2024-02-28T08:07:52;95675.69;;;4.10;100.00
62103;BME280;48077;48.104;11.702;2024-02-28T08:10:21;95675.78;;;4.17;100.00
62103;BME280;48077;48.104;11.702;2024-02-28T08:12:49;95681.38;;;4.07;100.00
62103;BME280;48077;48.104;11.702;2024-02-28T08:15:17;95682.22;;;4.14;100.00
62103;BME280;48077;48.104;11.702;2024-02-28T08:17:45;95689.47;;;4.27;100.00
62103;BME280;48077;48.104;11.702;2024-02-28T08:20:12;95700.97;;;3.83;100.00
62103;BME280;48077;48.104;11.702;2024-02-28T08:22:40;95686.81;;;4.05;100.00
62103;BME280;48077;48.104;11.702;2024-02-28T08:25:08;95691.63;;;4.17;100.00
62103;BME280;48077;48.104;11.702;2024-02-28T08:27:39;95699.34;;;4.18;100.00
62103;BME280;48077;48.104;11.702;2024-02-28T08:30:07;95699.72;;;3.94;100.00
62103;BME280;48077;48.104;11.702;2024-02-28T08:32:35;95698.78;;;3.87;100.00
62103;BME280;48077;48.104;11.702;2024-02-28T08:35:02;95707.94;;;4.05;100.00
62103;BME280;48077;48.104;11.702;2024-02-28T08:37:30;95706.19;;;4.13;100.00
62103;BME280;48077;48.104;11.702;2024-02-28T08:39:58;95705.50;;;4.25;100.00
62103;BME280;48077;48.104;11.702;2024-02-28T08:42:26;95706.38;;;4.33;100.00
62103;BME280;48077;48.104;11.702;2024-02-28T08:44:55;95700.91;;;4.56;100.00
62103;BME280;48077;48.104;11.702;2024-02-28T08:47:25;95703.28;;;4.29;100.00
62103;BME280;48077;48.104;11.702;2024-02-28T08:49:53;95700.97;;;4.41;100.00
62103;BME280;48077;48.104;11.702;2024-02-28T08:52:21;95708.41;;;4.31;100.00
62103;BME280;48077;48.104;11.702;2024-02-28T08:54:49;95700.13;;;4.34;100.00
62103;BME280;48077;48.104;11.702;2024-02-28T08:57:17;95708.91;;;4.41;100.00
62103;BME280;48077;48.104;11.702;2024-02-28T08:59:47;95713.69;;;4.31;100.00
62103;BME280;48077;48.104;11.702;2024-02-28T09:02:19;95717.56;;;4.35;100.00
62103;BME280;48077;48.104;11.702;2024-02-28T09:04:47;95714.06;;;4.28;100.00
62103;BME280;48077;48.104;11.702;2024-02-28T09:07:18;95718.91;;;4.45;100.00
62103;BME280;48077;48.104;11.702;2024-02-28T09:09:46;95720.25;;;4.56;100.00
62103;BME280;48077;48.104;11.702;2024-02-28T09:12:15;95722.84;;;4.35;100.00
62103;BME280;48077;48.104;11.702;2024-02-28T09:14:42;95720.84;;;4.37;100.00
62103;BME280;48077;48.104;11.702;2024-02-28T09:17:11;95725.00;;;4.24;100.00
62103;BME280;48077;48.104;11.702;2024-02-28T09:19:40;95730.34;;;4.31;100.00
62103;BME280;48077;48.104;11.702;2024-02-28T09:22:08;95729.03;;;4.42;100.00
62103;BME280;48077;48.104;11.702;2024-02-28T09:24:37;95722.63;;;4.30;100.00
62103;BME280;48077;48.104;11.702;2024-02-28T09:27:05;95739.78;;;4.40;100.00
62103;BME280;48077;48.104;11.702;2024-02-28T09:29:33;95742.38;;;4.55;100.00
62103;BME280;48077;48.104;11.702;2024-02-28T09:32:01;95751.28;;;4.76;100.00
62103;BME280;48077;48.104;11.702;2024-02-28T09:34:29;95748.09;;;4.59;100.00
62103;BME280;48077;48.104;11.702;2024-02-28T09:36:58;95748.03;;;4.52;100.00
62103;BME280;48077;48.104;11.702;2024-02-28T09:39:26;95746.44;;;4.58;100.00
62103;BME280;48077;48.104;11.702;2024-02-28T09:41:54;95733.19;;;4.51;100.00
62103;BME280;48077;48.104;11.702;2024-02-28T09:44:22;95756.31;;;4.71;100.00
62103;BME280;48077;48.104;11.702;2024-02-28T09:46:51;95751.03;;;4.92;100.00
62103;BME280;48077;48.104;11.702;2024-02-28T09:49:19;95751.25;;;4.69;100.00
62103;BME280;48077;48.104;11.702;2024-02-28T09:51:49;95753.50;;;4.72;100.00
62103;BME280;48077;48.104;11.702;2024-02-28T09:54:18;95741.47;;;4.70;100.00
62103;BME280;48077;48.104;11.702;2024-02-28T09:56:47;95747.81;;;4.97;100.00
62103;BME280;48077;48.104;11.702;2024-02-28T09:59:15;95745.84;;;5.05;100.00
62103;BME280;48077;48.104;11.702;2024-02-28T10:01:55;95747.03;;;5.03;100.00
62103;BME280;48077;48.104;11.702;2024-02-28T10:04:25;95746.38;;;5.22;100.00
62103;BME280;48077;48.104;11.702;2024-02-28T10:06:54;95748.19;;;5.22;100.00
62103;BME280;48077;48.104;11.702;2024-02-28T10:09:23;95740.94;;;5.02;100.00
62103;BME280;48077;48.104;11.702;2024-02-28T10:11:51;95748.34;;;5.14;100.00
62103;BME280;48077;48.104;11.702;2024-02-28T10:14:18;95750.75;;;5.09;100.00
62103;BME280;48077;48.104;11.702;2024-02-28T10:16:46;95746.59;;;4.99;100.00
62103;BME280;48077;48.104;11.702;2024-02-28T10:19:14;95744.94;;;4.92;100.00
62103;BME280;48077;48.104;11.702;2024-02-28T10:21:42;95747.22;;;5.23;100.00
62103;BME280;48077;48.104;11.702;2024-02-28T10:24:11;95752.78;;;5.41;100.00
62103;BME280;48077;48.104;11.702;2024-02-28T10:26:44;95742.13;;;5.00;100.00
62103;BME280;48077;48.104;11.702;2024-02-28T10:29:14;95753.53;;;5.28;100.00
62103;BME280;48077;48.104;11.702;2024-02-28T10:31:42;95749.75;;;5.38;100.00
62103;BME280;48077;48.104;11.702;2024-02-28T10:34:17;95758.50;;;5.38;100.00
62103;BME280;48077;48.104;11.702;2024-02-28T10:36:45;95751.38;;;5.74;100.00
62103;BME280;48077;48.104;11.702;2024-02-28T10:39:14;95754.91;;;5.87;100.00
62103;BME280;48077;48.104;11.702;2024-02-28T10:41:45;95752.66;;;5.91;100.00
62103;BME280;48077;48.104;11.702;2024-02-28T10:44:16;95761.59;;;5.83;100.00
62103;BME280;48077;48.104;11.702;2024-02-28T10:46:44;95760.25;;;5.59;100.00
62103;BME280;48077;48.104;11.702;2024-02-28T10:49:16;95767.31;;;5.87;100.00
62103;BME280;48077;48.104;11.702;2024-02-28T10:51:46;95756.47;;;5.75;100.00
62103;BME280;48077;48.104;11.702;2024-02-28T10:54:16;95764.91;;;5.92;100.00
62103;BME280;48077;48.104;11.702;2024-02-28T10:56:49;95764.47;;;5.88;100.00
62103;BME280;48077;48.104;11.702;2024-02-28T10:59:21;95761.97;;;5.80;100.00
62103;BME280;48077;48.104;11.702;2024-02-28T11:01:50;95761.41;;;5.92;100.00
62103;BME280;48077;48.104;11.702;2024-02-28T11:04:18;95762.94;;;5.73;100.00
62103;BME280;48077;48.104;11.702;2024-02-28T11:06:47;95764.50;;;5.60;100.00
62103;BME280;48077;48.104;11.702;2024-02-28T11:09:19;95768.13;;;5.46;100.00
62103;BME280;48077;48.104;11.702;2024-02-28T11:11:51;95772.03;;;5.57;100.00
62103;BME280;48077;48.104;11.702;2024-02-28T11:14:20;95768.91;;;5.46;100.00
62103;BME280;48077;48.104;11.702;2024-02-28T11:16:59;95763.06;;;5.58;100.00
62103;BME280;48077;48.104;11.702;2024-02-28T11:19:28;95772.84;;;5.57;100.00
62103;BME280;48077;48.104;11.702;2024-02-28T11:21:58;95777.59;;;5.34;100.00
62103;BME280;48077;48.104;11.702;2024-02-28T11:24:29;95770.78;;;5.24;100.00
62103;BME280;48077;48.104;11.702;2024-02-28T11:26:58;95774.84;;;5.48;100.00
62103;BME280;48077;48.104;11.702;2024-02-28T11:29:27;95780.75;;;5.51;100.00
62103;BME280;48077;48.104;11.702;2024-02-28T11:31:55;95783.47;;;5.64;100.00
62103;BME280;48077;48.104;11.702;2024-02-28T11:34:23;95783.91;;;5.67;100.00
62103;BME280;48077;48.104;11.702;2024-02-28T11:36:51;95783.31;;;5.72;100.00
62103;BME280;48077;48.104;11.702;2024-02-28T11:39:20;95789.00;;;5.69;100.00
62103;BME280;48077;48.104;11.702;2024-02-28T11:41:51;95777.59;;;5.68;100.00
62103;BME280;48077;48.104;11.702;2024-02-28T11:44:20;95782.69;;;5.70;100.00
62103;BME280;48077;48.104;11.702;2024-02-28T11:46:49;95782.78;;;5.48;100.00
62103;BME280;48077;48.104;11.702;2024-02-28T11:49:17;95770.47;;;5.34;100.00
62103;BME280;48077;48.104;11.702;2024-02-28T11:51:46;95776.47;;;5.50;100.00
62103;BME280;48077;48.104;11.702;2024-02-28T11:54:14;95779.88;;;5.43;100.00
62103;BME280;48077;48.104;11.702;2024-02-28T11:56:42;95774.97;;;5.40;100.00
62103;BME280;48077;48.104;11.702;2024-02-28T11:59:11;95781.91;;;5.41;100.00
62103;BME280;48077;48.104;11.702;2024-02-28T12:01:42;95781.81;;;5.28;100.00
62103;BME280;48077;48.104;11.702;2024-02-28T12:04:11;95778.41;;;5.34;100.00
62103;BME280;48077;48.104;11.702;2024-02-28T12:06:40;95784.22;;;5.51;100.00
62103;BME280;48077;48.104;11.702;2024-02-28T12:09:09;95778.78;;;5.31;100.00
62103;BME280;48077;48.104;11.702;2024-02-28T12:11:41;95791.84;;;5.39;100.00
62103;BME280;48077;48.104;11.702;2024-02-28T12:14:10;95791.63;;;5.34;100.00
62103;BME280;48077;48.104;11.702;2024-02-28T12:16:41;95793.97;;;5.22;100.00
62103;BME280;48077;48.104;11.702;2024-02-28T12:19:11;95788.25;;;5.19;100.00
62103;BME280;48077;48.104;11.702;2024-02-28T12:21:40;95791.03;;;5.11;100.00
62103;BME280;48077;48.104;11.702;2024-02-28T12:24:09;95791.41;;;5.07;100.00
62103;BME280;48077;48.104;11.702;2024-02-28T12:26:38;95792.63;;;5.05;100.00
62103;BME280;48077;48.104;11.702;2024-02-28T12:29:06;95796.88;;;5.06;100.00
62103;BME280;48077;48.104;11.702;2024-02-28T12:31:34;95789.06;;;5.19;100.00
62103;BME280;48077;48.104;11.702;2024-02-28T12:34:03;95796.38;;;5.17;100.00
62103;BME280;48077;48.104;11.702;2024-02-28T12:36:31;95798.09;;;5.03;100.00
62103;BME280;48077;48.104;11.702;2024-02-28T12:39:00;95794.81;;;5.01;100.00
62103;BME280;48077;48.104;11.702;2024-02-28T12:41:29;95793.47;;;5.12;100.00
62103;BME280;48077;48.104;11.702;2024-02-28T12:43:57;95789.84;;;5.13;100.00
62103;BME280;48077;48.104;11.702;2024-02-28T12:46:24;95790.69;;;5.20;100.00
62103;BME280;48077;48.104;11.702;2024-02-28T12:48:52;95785.66;;;5.25;100.00
62103;BME280;48077;48.104;11.702;2024-02-28T12:51:37;95781.59;;;5.23;100.00
62103;BME280;48077;48.104;11.702;2024-02-28T12:54:06;95787.63;;;5.17;100.00
62103;BME280;48077;48.104;11.702;2024-02-28T12:56:34;95779.63;;;5.10;100.00
62103;BME280;48077;48.104;11.702;2024-02-28T12:59:02;95786.63;;;5.18;100.00
62103;BME280;48077;48.104;11.702;2024-02-28T13:01:30;95795.31;;;5.12;100.00